Arrey, NM

12:21 AM MDT on June 30, 2015 (GMT -0600)
Las Cruces International | | Change Station
CLOSE
Current Station
Airport
Location: Las Cruces,
Elevation: 4455 ft
Nearby Weather Stations

Elev 4455 ft 32.29 °N, 106.91 °W | Updated 6 minutes ago

Partly Cloudy
Partly Cloudy
80 °F
Feels Like 80 °F
N
15
Wind Variable Wind from SSE
Gusts 23 mph

Today
High -- | Low -- °F
--% Chance of Precip.
Yesterday
High -- | Low -- °F
Precip. -- in
6:04 AM 8:21 PM
Waxing Gibbous, 96% visible
Pressure 30.11 in
Visibility 10.0 miles
Clouds Scattered Clouds 4600 ft
Scattered Clouds 5000 ft
Mostly Cloudy 11000 ft
Dew Point 52 °F
Humidity 38%
Rainfall 0.00 in
Snow Depth Not available.
UV 0 out of 12
Pollen 3.60 out of 12
Air Quality Not available.
Flu Activity Sporadic
METAR KLRU 300615Z AUTO 16013G20KT 10SM -RA SCT046 SCT050 BKN110 26/11 A3011 RMK AO2 T02640109

More Conditions Fewer Conditions

Pressure 30.11 in
Visibility 10.0 miles
Clouds Scattered Clouds 4600 ft
Scattered Clouds 5000 ft
Mostly Cloudy 11000 ft
Dew Point 52 °F
Humidity 38%
Rainfall 0.00 in
Snow Depth Not available.
UV 0 out of 12
Pollen 3.60 out of 12
Air Quality Not available.
Flu Activity Sporadic
METAR KLRU 300615Z AUTO 16013G20KT 10SM -RA SCT046 SCT050 BKN110 26/11 A3011 RMK AO2 T02640109

More Conditions Fewer Conditions

Nowcast | as of 11:20 PM MDT on June 29, 2015

Scattered showers and thunderstorms have developed over much of West Texas and southern New Mexico over the past hour. The storms are in an area from about the southern Black Range and extending southeast to Orogrande and down to Sierra Blanca, Texas. This entire area is generally moving southwest at 15 to 20 mph and will continue for at least 2 hours. Showers will be generally light...less than tw0-tenths of an inch. However where showers develop into thunderstorms...expect up to one-half inch of rainfall in less than an hour. Wind gusts of 35 to 45 mph are also possible near these storms.

×

10-Day Weather Forecast

×

Almanac

Astronomy

Jun. 30, 2015 Rise Set
Actual Time
Civil Twilight
Nautical Twilight
Astronomical Twilight
Moon
Length of Visible Light
Length of Day
Tomorrow will be .
, % of the Moon is Illuminated

Today's Extremes

State Highs State Lows

Community

WunderPhotos

Upload Photos

1,833,971 photos uploaded!

WunderBlogs® & News

Nearby

Air Quality

  Air Quality AQ Index Pollutant
Not available.

Snow Depth

Station Depth Elevation

Earthquake Activity

City Distance Mag. Time & Date
Minimum magnitude displayed is 2.5.

Coastal Water Temperatures

Place Temperature

Stations

Nearby Weather Stations

Station Location Temp. Windchill Dew Point Humidity Wind Precip. Elev Updated Type